sensor_id;sensor_type;location;lat;lon;timestamp;pressure;altitude;pressure_sealevel;temperature;humidity
65127;BME280;51927;49.080;19.652;2022-12-07T00:00:05;93889.63;;;28.09;37.12
65127;BME280;51927;49.080;19.652;2022-12-07T00:00:10;93892.31;;;28.09;37.24
65127;BME280;51927;49.080;19.652;2022-12-07T00:00:16;93892.31;;;28.09;37.22
65127;BME280;51927;49.080;19.652;2022-12-07T00:00:21;93890.75;;;28.08;37.47
65127;BME280;51927;49.080;19.652;2022-12-07T00:00:26;93888.06;;;28.08;37.33
65127;BME280;51927;49.080;19.652;2022-12-07T00:00:31;93890.00;;;28.07;37.13
65127;BME280;51927;49.080;19.652;2022-12-07T00:00:36;93893.44;;;28.08;37.29
65127;BME280;51927;49.080;19.652;2022-12-07T00:00:41;93890.75;;;28.08;37.31
65127;BME280;51927;49.080;19.652;2022-12-07T00:00:47;93892.69;;;28.07;37.41
65127;BME280;51927;49.080;19.652;2022-12-07T00:00:52;93884.97;;;28.06;37.14
65127;BME280;51927;49.080;19.652;2022-12-07T00:01:04;93897.28;;;28.07;37.50
65127;BME280;51927;49.080;19.652;2022-12-07T00:01:21;93885.31;;;28.04;37.48
65127;BME280;51927;49.080;19.652;2022-12-07T00:01:30;93894.16;;;28.05;37.32
65127;BME280;51927;49.080;19.652;2022-12-07T00:01:38;93888.00;;;28.04;37.37
65127;BME280;51927;49.080;19.652;2022-12-07T00:01:44;93891.84;;;28.03;37.51
65127;BME280;51927;49.080;19.652;2022-12-07T00:01:49;93895.31;;;28.04;37.37
65127;BME280;51927;49.080;19.652;2022-12-07T00:01:54;93891.84;;;28.03;37.25
65127;BME280;51927;49.080;19.652;2022-12-07T00:01:59;93892.63;;;28.04;37.55
65127;BME280;51927;49.080;19.652;2022-12-07T00:02:05;93894.53;;;28.03;37.52
65127;BME280;51927;49.080;19.652;2022-12-07T00:02:10;93891.84;;;28.03;37.47
65127;BME280;51927;49.080;19.652;2022-12-07T00:02:15;93889.53;;;28.02;37.38
65127;BME280;51927;49.080;19.652;2022-12-07T00:02:20;93892.22;;;28.02;37.29
65127;BME280;51927;49.080;19.652;2022-12-07T00:02:25;93890.28;;;28.02;37.47
65127;BME280;51927;49.080;19.652;2022-12-07T00:02:31;93892.22;;;28.02;37.41
65127;BME280;51927;49.080;19.652;2022-12-07T00:02:36;93889.53;;;28.02;37.37
65127;BME280;51927;49.080;19.652;2022-12-07T00:02:41;93894.91;;;28.02;37.11
65127;BME280;51927;49.080;19.652;2022-12-07T00:02:46;93894.09;;;28.01;37.40
65127;BME280;51927;49.080;19.652;2022-12-07T00:02:52;93888.72;;;28.01;37.20
65127;BME280;51927;49.080;19.652;2022-12-07T00:02:57;93894.91;;;28.02;37.16
65127;BME280;51927;49.080;19.652;2022-12-07T00:03:02;93889.88;;;28.00;37.56
65127;BME280;51927;49.080;19.652;2022-12-07T00:03:07;93887.97;;;28.01;37.45
65127;BME280;51927;49.080;19.652;2022-12-07T00:03:12;93892.56;;;28.00;37.27
65127;BME280;51927;49.080;19.652;2022-12-07T00:03:17;93889.06;;;28.00;37.32
65127;BME280;51927;49.080;19.652;2022-12-07T00:03:23;93892.56;;;28.00;37.27
65127;BME280;51927;49.080;19.652;2022-12-07T00:03:28;93892.56;;;28.00;37.47
65127;BME280;51927;49.080;19.652;2022-12-07T00:03:33;93891.78;;;28.00;37.34
65127;BME280;51927;49.080;19.652;2022-12-07T00:03:39;93885.63;;;27.99;37.38
65127;BME280;51927;49.080;19.652;2022-12-07T00:03:45;93891.00;;;27.99;37.36
65127;BME280;51927;49.080;19.652;2022-12-07T00:03:51;93897.16;;;28.00;37.48
65127;BME280;51927;49.080;19.652;2022-12-07T00:03:58;93887.53;;;27.98;37.42
65127;BME280;51927;49.080;19.652;2022-12-07T00:04:12;93890.22;;;27.98;37.15
65127;BME280;51927;49.080;19.652;2022-12-07T00:04:17;93892.13;;;27.98;37.33
65127;BME280;51927;49.080;19.652;2022-12-07T00:04:23;93891.34;;;27.97;37.37
65127;BME280;51927;49.080;19.652;2022-12-07T00:04:28;93895.63;;;27.98;37.38
65127;BME280;51927;49.080;19.652;2022-12-07T00:04:33;93894.81;;;27.98;37.47
65127;BME280;51927;49.080;19.652;2022-12-07T00:04:39;93888.66;;;27.97;37.21
65127;BME280;51927;49.080;19.652;2022-12-07T00:04:44;93898.66;;;27.97;37.76
65127;BME280;51927;49.080;19.652;2022-12-07T00:04:49;93887.91;;;27.97;37.52
65127;BME280;51927;49.080;19.652;2022-12-07T00:04:54;93890.94;;;27.95;37.16
65127;BME280;51927;49.080;19.652;2022-12-07T00:04:59;93892.47;;;27.96;37.16
65127;BME280;51927;49.080;19.652;2022-12-07T00:05:04;93894.41;;;27.96;37.41
65127;BME280;51927;49.080;19.652;2022-12-07T00:05:10;93890.94;;;27.95;37.35
65127;BME280;51927;49.080;19.652;2022-12-07T00:05:15;93891.72;;;27.96;37.28
65127;BME280;51927;49.080;19.652;2022-12-07T00:05:20;93890.94;;;27.95;37.40
65127;BME280;51927;49.080;19.652;2022-12-07T00:05:25;93897.09;;;27.96;37.43
65127;BME280;51927;49.080;19.652;2022-12-07T00:05:30;93896.31;;;27.95;37.16
65127;BME280;51927;49.080;19.652;2022-12-07T00:05:36;93890.94;;;27.95;37.34
65127;BME280;51927;49.080;19.652;2022-12-07T00:05:41;93893.63;;;27.95;37.33
65127;BME280;51927;49.080;19.652;2022-12-07T00:05:46;93894.00;;;27.94;37.56
65127;BME280;51927;49.080;19.652;2022-12-07T00:05:51;93892.06;;;27.94;37.71
65127;BME280;51927;49.080;19.652;2022-12-07T00:05:57;93894.75;;;27.94;37.62
65127;BME280;51927;49.080;19.652;2022-12-07T00:06:02;93896.31;;;27.95;37.24
65127;BME280;51927;49.080;19.652;2022-12-07T00:06:08;93897.44;;;27.94;37.30
65127;BME280;51927;49.080;19.652;2022-12-07T00:06:14;93900.91;;;27.95;37.42
65127;BME280;51927;49.080;19.652;2022-12-07T00:06:20;93893.22;;;27.93;37.38
65127;BME280;51927;49.080;19.652;2022-12-07T00:06:25;93898.59;;;27.93;37.53
65127;BME280;51927;49.080;19.652;2022-12-07T00:06:32;93903.16;;;27.93;37.49
65127;BME280;51927;49.080;19.652;2022-12-07T00:06:38;93894.31;;;27.92;37.60
65127;BME280;51927;49.080;19.652;2022-12-07T00:06:44;93898.59;;;27.93;37.62
65127;BME280;51927;49.080;19.652;2022-12-07T00:06:51;93897.00;;;27.92;37.45
65127;BME280;51927;49.080;19.652;2022-12-07T00:06:56;93897.78;;;27.93;37.41
65127;BME280;51927;49.080;19.652;2022-12-07T00:07:02;93899.69;;;27.92;37.29
65127;BME280;51927;49.080;19.652;2022-12-07T00:07:07;93898.13;;;27.91;37.45
65127;BME280;51927;49.080;19.652;2022-12-07T00:07:12;93897.00;;;27.92;37.41
65127;BME280;51927;49.080;19.652;2022-12-07T00:07:18;93897.00;;;27.92;37.30
65127;BME280;51927;49.080;19.652;2022-12-07T00:07:23;93892.75;;;27.91;37.37
65127;BME280;51927;49.080;19.652;2022-12-07T00:07:28;93895.44;;;27.91;37.27
65127;BME280;51927;49.080;19.652;2022-12-07T00:07:33;93897.00;;;27.92;37.58
65127;BME280;51927;49.080;19.652;2022-12-07T00:07:39;93898.13;;;27.91;37.29
65127;BME280;51927;49.080;19.652;2022-12-07T00:07:44;93900.81;;;27.91;37.39
65127;BME280;51927;49.080;19.652;2022-12-07T00:07:49;93895.44;;;27.91;37.56
65127;BME280;51927;49.080;19.652;2022-12-07T00:07:54;93895.44;;;27.91;37.27
65127;BME280;51927;49.080;19.652;2022-12-07T00:07:59;93899.28;;;27.90;37.39
65127;BME280;51927;49.080;19.652;2022-12-07T00:08:04;93893.91;;;27.90;37.54
65127;BME280;51927;49.080;19.652;2022-12-07T00:08:10;93900.06;;;27.91;37.51
65127;BME280;51927;49.080;19.652;2022-12-07T00:08:15;93899.28;;;27.90;37.46
65127;BME280;51927;49.080;19.652;2022-12-07T00:08:20;93899.28;;;27.90;37.21
65127;BME280;51927;49.080;19.652;2022-12-07T00:08:25;93893.09;;;27.90;37.32
65127;BME280;51927;49.080;19.652;2022-12-07T00:08:31;93901.97;;;27.90;37.45
65127;BME280;51927;49.080;19.652;2022-12-07T00:08:36;93895.78;;;27.90;37.37
65127;BME280;51927;49.080;19.652;2022-12-07T00:08:41;93901.19;;;27.90;37.46
65127;BME280;51927;49.080;19.652;2022-12-07T00:08:47;93893.91;;;27.90;37.38
65127;BME280;51927;49.080;19.652;2022-12-07T00:08:52;93897.72;;;27.89;37.33
65127;BME280;51927;49.080;19.652;2022-12-07T00:08:58;93897.72;;;27.89;37.44
65127;BME280;51927;49.080;19.652;2022-12-07T00:09:03;93896.16;;;27.88;37.61
65127;BME280;51927;49.080;19.652;2022-12-07T00:09:10;93893.47;;;27.88;37.33
65127;BME280;51927;49.080;19.652;2022-12-07T00:09:16;93898.06;;;27.88;37.28
65127;BME280;51927;49.080;19.652;2022-12-07T00:09:22;93892.69;;;27.88;37.22
65127;BME280;51927;49.080;19.652;2022-12-07T00:09:27;93890.00;;;27.88;37.47
65127;BME280;51927;49.080;19.652;2022-12-07T00:09:32;93891.91;;;27.87;37.38
65127;BME280;51927;49.080;19.652;2022-12-07T00:09:37;93894.63;;;27.87;37.50
65127;BME280;51927;49.080;19.652;2022-12-07T00:09:43;93898.06;;;27.88;37.34
65127;BME280;51927;49.080;19.652;2022-12-07T00:09:49;93905.38;;;27.87;37.41
65127;BME280;51927;49.080;19.652;2022-12-07T00:09:54;93900.00;;;27.87;37.47
65127;BME280;51927;49.080;19.652;2022-12-07T00:09:59;93899.19;;;27.87;37.63
65127;BME280;51927;49.080;19.652;2022-12-07T00:10:04;93899.19;;;27.87;37.29
65127;BME280;51927;49.080;19.652;2022-12-07T00:10:10;93893.81;;;27.87;37.49
65127;BME280;51927;49.080;19.652;2022-12-07T00:10:15;93898.44;;;27.86;37.45
65127;BME280;51927;49.080;19.652;2022-12-07T00:10:20;93899.19;;;27.87;37.65
65127;BME280;51927;49.080;19.652;2022-12-07T00:10:25;93901.13;;;27.86;37.29
65127;BME280;51927;49.080;19.652;2022-12-07T00:10:32;93903.81;;;27.86;37.46
65127;BME280;51927;49.080;19.652;2022-12-07T00:10:38;93891.47;;;27.85;37.62
65127;BME280;51927;49.080;19.652;2022-12-07T00:10:43;93908.41;;;27.86;37.48
65127;BME280;51927;49.080;19.652;2022-12-07T00:10:48;93902.25;;;27.85;37.56
65127;BME280;51927;49.080;19.652;2022-12-07T00:10:53;93896.84;;;27.85;37.44
65127;BME280;51927;49.080;19.652;2022-12-07T00:11:02;93896.84;;;27.85;37.33
65127;BME280;51927;49.080;19.652;2022-12-07T00:11:09;93892.63;;;27.84;37.47
65127;BME280;51927;49.080;19.652;2022-12-07T00:11:18;93899.13;;;27.83;37.43
65127;BME280;51927;49.080;19.652;2022-12-07T00:11:24;93899.94;;;27.84;37.30
65127;BME280;51927;49.080;19.652;2022-12-07T00:11:29;93899.94;;;27.84;37.51
65127;BME280;51927;49.080;19.652;2022-12-07T00:11:34;93899.13;;;27.83;37.35
65127;BME280;51927;49.080;19.652;2022-12-07T00:11:39;93899.13;;;27.83;37.41
65127;BME280;51927;49.080;19.652;2022-12-07T00:11:48;93900.28;;;27.82;37.49
65127;BME280;51927;49.080;19.652;2022-12-07T00:11:53;93896.81;;;27.82;37.29
65127;BME280;51927;49.080;19.652;2022-12-07T00:11:58;93894.91;;;27.82;37.60
65127;BME280;51927;49.080;19.652;2022-12-07T00:12:03;93903.75;;;27.83;37.31
65127;BME280;51927;49.080;19.652;2022-12-07T00:12:09;93900.28;;;27.82;37.39
65127;BME280;51927;49.080;19.652;2022-12-07T00:12:14;93901.41;;;27.81;37.53
65127;BME280;51927;49.080;19.652;2022-12-07T00:12:19;93896.03;;;27.81;37.33
65127;BME280;51927;49.080;19.652;2022-12-07T00:12:24;93896.03;;;27.81;37.60
65127;BME280;51927;49.080;19.652;2022-12-07T00:12:29;93896.81;;;27.82;37.62
65127;BME280;51927;49.080;19.652;2022-12-07T00:12:35;93893.34;;;27.81;37.40
65127;BME280;51927;49.080;19.652;2022-12-07T00:12:40;93899.84;;;27.80;37.43
65127;BME280;51927;49.080;19.652;2022-12-07T00:12:45;93895.25;;;27.80;37.44
65127;BME280;51927;49.080;19.652;2022-12-07T00:12:50;93897.16;;;27.80;37.63
65127;BME280;51927;49.080;19.652;2022-12-07T00:12:55;93899.06;;;27.79;37.49
65127;BME280;51927;49.080;19.652;2022-12-07T00:13:00;93892.94;;;27.79;37.65
65127;BME280;51927;49.080;19.652;2022-12-07T00:13:06;93896.38;;;27.79;37.44
65127;BME280;51927;49.080;19.652;2022-12-07T00:13:11;93892.94;;;27.79;37.55
65127;BME280;51927;49.080;19.652;2022-12-07T00:13:16;93896.38;;;27.79;37.48
65127;BME280;51927;49.080;19.652;2022-12-07T00:13:21;93896.38;;;27.79;37.48
65127;BME280;51927;49.080;19.652;2022-12-07T00:13:26;93892.13;;;27.78;37.53
65127;BME280;51927;49.080;19.652;2022-12-07T00:13:32;93892.94;;;27.79;37.49
65127;BME280;51927;49.080;19.652;2022-12-07T00:13:38;93901.00;;;27.79;37.63
65127;BME280;51927;49.080;19.652;2022-12-07T00:13:44;93896.75;;;27.78;37.51
65127;BME280;51927;49.080;19.652;2022-12-07T00:13:56;93896.75;;;27.78;37.30
65127;BME280;51927;49.080;19.652;2022-12-07T00:14:03;93899.44;;;27.78;37.58
65127;BME280;51927;49.080;19.652;2022-12-07T00:14:11;93897.50;;;27.78;37.27
65127;BME280;51927;49.080;19.652;2022-12-07T00:14:17;93896.75;;;27.78;37.49
65127;BME280;51927;49.080;19.652;2022-12-07T00:14:23;93893.63;;;27.76;37.50
65127;BME280;51927;49.080;19.652;2022-12-07T00:14:28;93895.16;;;27.77;37.67
65127;BME280;51927;49.080;19.652;2022-12-07T00:14:33;93891.34;;;27.78;37.44
65127;BME280;51927;49.080;19.652;2022-12-07T00:14:38;93896.75;;;27.78;37.43
65127;BME280;51927;49.080;19.652;2022-12-07T00:14:43;93889.78;;;27.77;37.60
65127;BME280;51927;49.080;19.652;2022-12-07T00:14:49;93894.41;;;27.76;37.60
65127;BME280;51927;49.080;19.652;2022-12-07T00:14:54;93892.47;;;27.77;37.37
65127;BME280;51927;49.080;19.652;2022-12-07T00:14:59;93894.41;;;27.76;37.64
65127;BME280;51927;49.080;19.652;2022-12-07T00:15:04;93892.47;;;27.77;37.68
65127;BME280;51927;49.080;19.652;2022-12-07T00:15:09;93893.63;;;27.76;37.39
65127;BME280;51927;49.080;19.652;2022-12-07T00:15:15;93890.94;;;27.76;37.46
65127;BME280;51927;49.080;19.652;2022-12-07T00:15:20;93896.31;;;27.76;37.49
65127;BME280;51927;49.080;19.652;2022-12-07T00:15:26;93890.19;;;27.75;37.46
65127;BME280;51927;49.080;19.652;2022-12-07T00:15:33;93894.75;;;27.75;37.57
65127;BME280;51927;49.080;19.652;2022-12-07T00:15:38;93896.31;;;27.76;37.39
65127;BME280;51927;49.080;19.652;2022-12-07T00:15:43;93890.53;;;27.74;37.47
65127;BME280;51927;49.080;19.652;2022-12-07T00:15:48;93900.13;;;27.75;37.57
65127;BME280;51927;49.080;19.652;2022-12-07T00:15:53;93894.75;;;27.75;37.71
65127;BME280;51927;49.080;19.652;2022-12-07T00:16:09;93893.22;;;27.74;37.38
65127;BME280;51927;49.080;19.652;2022-12-07T00:16:15;93893.22;;;27.74;37.73
65127;BME280;51927;49.080;19.652;2022-12-07T00:16:22;93891.66;;;27.73;37.47
65127;BME280;51927;49.080;19.652;2022-12-07T00:16:29;93893.56;;;27.72;37.34
65127;BME280;51927;49.080;19.652;2022-12-07T00:16:34;93891.66;;;27.73;37.63
65127;BME280;51927;49.080;19.652;2022-12-07T00:16:40;93888.97;;;27.73;37.25
65127;BME280;51927;49.080;19.652;2022-12-07T00:16:45;93898.97;;;27.72;37.40
65127;BME280;51927;49.080;19.652;2022-12-07T00:16:53;93897.03;;;27.73;37.54
65127;BME280;51927;49.080;19.652;2022-12-07T00:16:58;93892.78;;;27.72;37.45
65127;BME280;51927;49.080;19.652;2022-12-07T00:17:03;93889.31;;;27.71;37.44
65127;BME280;51927;49.080;19.652;2022-12-07T00:17:08;93885.84;;;27.71;37.51
65127;BME280;51927;49.080;19.652;2022-12-07T00:17:13;93891.66;;;27.73;37.51
65127;BME280;51927;49.080;19.652;2022-12-07T00:17:19;93886.63;;;27.71;37.36
65127;BME280;51927;49.080;19.652;2022-12-07T00:17:24;93898.16;;;27.72;37.45
65127;BME280;51927;49.080;19.652;2022-12-07T00:17:29;93889.31;;;27.71;37.54
65127;BME280;51927;49.080;19.652;2022-12-07T00:17:34;93891.25;;;27.71;37.51
65127;BME280;51927;49.080;19.652;2022-12-07T00:17:39;93892.38;;;27.70;37.44
65127;BME280;51927;49.080;19.652;2022-12-07T00:17:44;93893.94;;;27.71;37.56
65127;BME280;51927;49.080;19.652;2022-12-07T00:17:50;93892.00;;;27.71;37.66
65127;BME280;51927;49.080;19.652;2022-12-07T00:17:55;93891.25;;;27.71;37.44
65127;BME280;51927;49.080;19.652;2022-12-07T00:18:00;93895.81;;;27.70;37.51
65127;BME280;51927;49.080;19.652;2022-12-07T00:18:05;93893.94;;;27.71;37.57
65127;BME280;51927;49.080;19.652;2022-12-07T00:18:10;93892.38;;;27.70;37.65
65127;BME280;51927;49.080;19.652;2022-12-07T00:18:15;93900.44;;;27.70;37.59
65127;BME280;51927;49.080;19.652;2022-12-07T00:18:21;93892.38;;;27.70;37.39
65127;BME280;51927;49.080;19.652;2022-12-07T00:18:26;93887.34;;;27.68;37.71
65127;BME280;51927;49.080;19.652;2022-12-07T00:18:31;93893.47;;;27.69;37.48
65127;BME280;51927;49.080;19.652;2022-12-07T00:18:36;93888.09;;;27.69;37.37
65127;BME280;51927;49.080;19.652;2022-12-07T00:18:42;93892.72;;;27.68;37.75
65127;BME280;51927;49.080;19.652;2022-12-07T00:18:47;93890.78;;;27.69;37.63
65127;BME280;51927;49.080;19.652;2022-12-07T00:18:52;93886.56;;;27.68;37.53
65127;BME280;51927;49.080;19.652;2022-12-07T00:18:58;93895.41;;;27.68;37.68
65127;BME280;51927;49.080;19.652;2022-12-07T00:19:03;93894.63;;;27.68;37.55
65127;BME280;51927;49.080;19.652;2022-12-07T00:19:09;93891.16;;;27.67;37.88
65127;BME280;51927;49.080;19.652;2022-12-07T00:19:15;93890.38;;;27.67;37.72
65127;BME280;51927;49.080;19.652;2022-12-07T00:19:20;93888.47;;;27.67;37.59
65127;BME280;51927;49.080;19.652;2022-12-07T00:19:25;93893.06;;;27.67;37.52
65127;BME280;51927;49.080;19.652;2022-12-07T00:19:30;93887.69;;;27.67;37.58
65127;BME280;51927;49.080;19.652;2022-12-07T00:19:36;93890.38;;;27.67;37.61
65127;BME280;51927;49.080;19.652;2022-12-07T00:19:41;93892.31;;;27.66;37.34
65127;BME280;51927;49.080;19.652;2022-12-07T00:19:46;93892.31;;;27.66;37.52
65127;BME280;51927;49.080;19.652;2022-12-07T00:19:51;93888.84;;;27.66;37.37
65127;BME280;51927;49.080;19.652;2022-12-07T00:19:56;93886.16;;;27.66;37.60
65127;BME280;51927;49.080;19.652;2022-12-07T00:20:01;93889.59;;;27.66;37.46
65127;BME280;51927;49.080;19.652;2022-12-07T00:20:07;93895.00;;;27.66;37.60
65127;BME280;51927;49.080;19.652;2022-12-07T00:20:12;93895.00;;;27.66;37.38
65127;BME280;51927;49.080;19.652;2022-12-07T00:20:17;93885.34;;;27.65;37.77
65127;BME280;51927;49.080;19.652;2022-12-07T00:20:23;93886.16;;;27.66;37.69
65127;BME280;51927;49.080;19.652;2022-12-07T00:20:28;93883.47;;;27.66;37.59
65127;BME280;51927;49.080;19.652;2022-12-07T00:20:33;93883.47;;;27.66;37.63
65127;BME280;51927;49.080;19.652;2022-12-07T00:20:38;93885.34;;;27.65;37.47
65127;BME280;51927;49.080;19.652;2022-12-07T00:20:43;93888.03;;;27.65;37.51
65127;BME280;51927;49.080;19.652;2022-12-07T00:20:48;93888.03;;;27.65;37.56
65127;BME280;51927;49.080;19.652;2022-12-07T00:20:58;93881.91;;;27.65;37.65
65127;BME280;51927;49.080;19.652;2022-12-07T00:21:05;93883.47;;;27.66;37.41
65127;BME280;51927;49.080;19.652;2022-12-07T00:21:12;93886.16;;;27.66;37.61
65127;BME280;51927;49.080;19.652;2022-12-07T00:21:18;93894.22;;;27.66;37.56
65127;BME280;51927;49.080;19.652;2022-12-07T00:21:26;93882.66;;;27.65;37.53
65127;BME280;51927;49.080;19.652;2022-12-07T00:21:35;93883.47;;;27.66;37.56
65127;BME280;51927;49.080;19.652;2022-12-07T00:21:40;93881.91;;;27.65;37.66
65127;BME280;51927;49.080;19.652;2022-12-07T00:21:45;93887.28;;;27.65;37.55
65127;BME280;51927;49.080;19.652;2022-12-07T00:21:51;93888.03;;;27.65;37.51
65127;BME280;51927;49.080;19.652;2022-12-07T00:21:56;93885.34;;;27.65;37.67
65127;BME280;51927;49.080;19.652;2022-12-07T00:22:01;93885.72;;;27.64;37.45
65127;BME280;51927;49.080;19.652;2022-12-07T00:22:06;93881.91;;;27.65;37.69
65127;BME280;51927;49.080;19.652;2022-12-07T00:22:11;93887.28;;;27.65;37.48
65127;BME280;51927;49.080;19.652;2022-12-07T00:22:16;93884.59;;;27.65;37.78
65127;BME280;51927;49.080;19.652;2022-12-07T00:22:22;93881.91;;;27.65;37.49
65127;BME280;51927;49.080;19.652;2022-12-07T00:22:27;93886.50;;;27.64;37.72
65127;BME280;51927;49.080;19.652;2022-12-07T00:22:32;93880.31;;;27.64;37.62
65127;BME280;51927;49.080;19.652;2022-12-07T00:22:37;93888.41;;;27.64;37.54
65127;BME280;51927;49.080;19.652;2022-12-07T00:22:42;93884.16;;;27.63;37.52
65127;BME280;51927;49.080;19.652;2022-12-07T00:22:47;93885.72;;;27.64;37.60
65127;BME280;51927;49.080;19.652;2022-12-07T00:22:53;93886.84;;;27.63;37.74
65127;BME280;51927;49.080;19.652;2022-12-07T00:22:58;93885.28;;;27.61;37.60
65127;BME280;51927;49.080;19.652;2022-12-07T00:23:03;93890.31;;;27.63;37.76
65127;BME280;51927;49.080;19.652;2022-12-07T00:23:08;93889.56;;;27.63;37.57
65127;BME280;51927;49.080;19.652;2022-12-07T00:23:14;93884.16;;;27.63;37.79
65127;BME280;51927;49.080;19.652;2022-12-07T00:23:19;93888.75;;;27.62;37.64
65127;BME280;51927;49.080;19.652;2022-12-07T00:23:24;93883.38;;;27.62;37.63
65127;BME280;51927;49.080;19.652;2022-12-07T00:23:29;93882.59;;;27.61;37.57
65127;BME280;51927;49.080;19.652;2022-12-07T00:23:34;93882.59;;;27.61;37.56
65127;BME280;51927;49.080;19.652;2022-12-07T00:23:40;93887.97;;;27.61;37.73
65127;BME280;51927;49.080;19.652;2022-12-07T00:23:47;93881.84;;;27.61;37.45
65127;BME280;51927;49.080;19.652;2022-12-07T00:23:53;93887.22;;;27.61;37.54
65127;BME280;51927;49.080;19.652;2022-12-07T00:23:59;93887.22;;;27.61;37.60
65127;BME280;51927;49.080;19.652;2022-12-07T00:24:04;93881.03;;;27.60;37.82
65127;BME280;51927;49.080;19.652;2022-12-07T00:24:10;93887.22;;;27.61;37.68
65127;BME280;51927;49.080;19.652;2022-12-07T00:24:16;93884.53;;;27.61;37.46
65127;BME280;51927;49.080;19.652;2022-12-07T00:24:21;93889.09;;;27.60;37.64
65127;BME280;51927;49.080;19.652;2022-12-07T00:24:26;93888.34;;;27.60;37.43
65127;BME280;51927;49.080;19.652;2022-12-07T00:24:31;93884.53;;;27.61;37.60
65127;BME280;51927;49.080;19.652;2022-12-07T00:24:37;93884.88;;;27.59;37.49
65127;BME280;51927;49.080;19.652;2022-12-07T00:24:42;93882.19;;;27.59;37.53
65127;BME280;51927;49.080;19.652;2022-12-07T00:24:47;93884.88;;;27.59;37.62
65127;BME280;51927;49.080;19.652;2022-12-07T00:24:52;93880.28;;;27.60;37.47
65127;BME280;51927;49.080;19.652;2022-12-07T00:24:57;93882.19;;;27.59;37.68
65127;BME280;51927;49.080;19.652;2022-12-07T00:25:02;93883.72;;;27.60;37.64
65127;BME280;51927;49.080;19.652;2022-12-07T00:25:08;93879.50;;;27.59;37.64
65127;BME280;51927;49.080;19.652;2022-12-07T00:25:13;93881.38;;;27.59;37.51
65127;BME280;51927;49.080;19.652;2022-12-07T00:25:18;93887.56;;;27.59;37.37
65127;BME280;51927;49.080;19.652;2022-12-07T00:25:23;93888.34;;;27.60;37.61
65127;BME280;51927;49.080;19.652;2022-12-07T00:25:29;93886.75;;;27.59;37.81
65127;BME280;51927;49.080;19.652;2022-12-07T00:25:35;93890.25;;;27.59;37.51
65127;BME280;51927;49.080;19.652;2022-12-07T00:25:40;93886.00;;;27.58;37.61
65127;BME280;51927;49.080;19.652;2022-12-07T00:25:45;93877.94;;;27.58;37.68
65127;BME280;51927;49.080;19.652;2022-12-07T00:25:51;93882.53;;;27.58;37.78
65127;BME280;51927;49.080;19.652;2022-12-07T00:26:02;93881.75;;;27.57;37.71
65127;BME280;51927;49.080;19.652;2022-12-07T00:26:09;93886.00;;;27.58;37.61
65127;BME280;51927;49.080;19.652;2022-12-07T00:26:21;93887.91;;;27.58;37.58
65127;BME280;51927;49.080;19.652;2022-12-07T00:26:28;93885.22;;;27.58;37.77
65127;BME280;51927;49.080;19.652;2022-12-07T00:26:34;93877.16;;;27.58;37.71
65127;BME280;51927;49.080;19.652;2022-12-07T00:26:40;93882.53;;;27.58;37.86
65127;BME280;51927;49.080;19.652;2022-12-07T00:26:46;93883.31;;;27.58;37.57
65127;BME280;51927;49.080;19.652;2022-12-07T00:26:51;93888.69;;;27.58;37.49
65127;BME280;51927;49.080;19.652;2022-12-07T00:26:56;93880.63;;;27.58;37.50
65127;BME280;51927;49.080;19.652;2022-12-07T00:27:01;93889.81;;;27.57;37.52
65127;BME280;51927;49.080;19.652;2022-12-07T00:27:06;93882.53;;;27.58;37.58
65127;BME280;51927;49.080;19.652;2022-12-07T00:27:12;93882.53;;;27.58;37.52
65127;BME280;51927;49.080;19.652;2022-12-07T00:27:17;93895.19;;;27.57;37.52
65127;BME280;51927;49.080;19.652;2022-12-07T00:27:22;93885.22;;;27.58;37.59
65127;BME280;51927;49.080;19.652;2022-12-07T00:27:27;93889.81;;;27.57;37.53
65127;BME280;51927;49.080;19.652;2022-12-07T00:27:32;93889.81;;;27.57;37.75
65127;BME280;51927;49.080;19.652;2022-12-07T00:27:37;93891.38;;;27.58;37.63
65127;BME280;51927;49.080;19.652;2022-12-07T00:27:43;93887.91;;;27.58;37.60
65127;BME280;51927;49.080;19.652;2022-12-07T00:27:48;93894.06;;;27.58;37.62
65127;BME280;51927;49.080;19.652;2022-12-07T00:27:53;93887.91;;;27.58;37.65
65127;BME280;51927;49.080;19.652;2022-12-07T00:28:00;93890.59;;;27.58;37.60
65127;BME280;51927;49.080;19.652;2022-12-07T00:28:05;93891.38;;;27.58;37.51
65127;BME280;51927;49.080;19.652;2022-12-07T00:28:11;93884.44;;;27.57;37.60
65127;BME280;51927;49.080;19.652;2022-12-07T00:28:17;93888.69;;;27.58;37.59
65127;BME280;51927;49.080;19.652;2022-12-07T00:28:22;93893.28;;;27.58;37.70
65127;BME280;51927;49.080;19.652;2022-12-07T00:28:27;93889.03;;;27.57;37.82
65127;BME280;51927;49.080;19.652;2022-12-07T00:28:32;93889.03;;;27.57;37.88
65127;BME280;51927;49.080;19.652;2022-12-07T00:28:38;93889.81;;;27.57;37.62
65127;BME280;51927;49.080;19.652;2022-12-07T00:28:47;93890.97;;;27.56;37.59
65127;BME280;51927;49.080;19.652;2022-12-07T00:28:54;93883.66;;;27.57;37.60
65127;BME280;51927;49.080;19.652;2022-12-07T00:29:00;93887.13;;;27.57;37.45
65127;BME280;51927;49.080;19.652;2022-12-07T00:29:07;93890.97;;;27.56;37.66
65127;BME280;51927;49.080;19.652;2022-12-07T00:29:14;93895.56;;;27.56;37.59
65127;BME280;51927;49.080;19.652;2022-12-07T00:29:20;93886.72;;;27.55;37.59
65127;BME280;51927;49.080;19.652;2022-12-07T00:29:26;93889.41;;;27.55;37.64
65127;BME280;51927;49.080;19.652;2022-12-07T00:29:31;93885.59;;;27.56;37.63
65127;BME280;51927;49.080;19.652;2022-12-07T00:29:36;93888.63;;;27.55;37.64
65127;BME280;51927;49.080;19.652;2022-12-07T00:29:42;93884.00;;;27.55;37.63
65127;BME280;51927;49.080;19.652;2022-12-07T00:29:47;93882.47;;;27.54;37.46
65127;BME280;51927;49.080;19.652;2022-12-07T00:29:52;93885.16;;;27.54;37.85